Airfield :
LOGIN :

Register | Disclaimer

   EN    FR    IT 

 










Legend :    VFR   Marginal VFR   IFR   Intensive IFR   Very Intensive IFR
Visi :
Ceiling :
>= 8 km
>= 3000ft
5 to 8 km
1000 to 3000 ft
1500m to 5 km
500 to 1000 ft
800 to 1500m
200 to 500 ft
< 800m
< 200 ft
Symbols :   Thunderstorms  Fog  Heavy snow  Heavy precipitations  Wind > 20 kt
SIGMETs :     Misc.  Thunderstorms  Icing  Turbulence  Mountain Waves  Volcanic Ashes






- Airport Elevation : 1966 ft
- IATA code : SGE


EDGS - Siegerland

CURRENT METAR :
  • 011550Z 26015KT 9999 -RA SCT008 OVC010 02/01 Q1016

EXPIRED METARs :
  • 011520Z 26017G27KT 6000 -SNRA OVC006 02/01 Q1016
  • 011450Z 25016KT 6000 -SNRA BKN008 OVC011 02/01 Q1016
  • 011420Z 26017KT 8000 -SNRA SCT013 BKN015 OVC021 02/00 Q1016
  • 011350Z 26018KT 8000 -SNRA BKN012 OVC019 02/00 Q1016
  • 011320Z 26016KT 230V290 6000 -SNRA BKN012 OVC019 02/00 Q1016
  • 011250Z 26015KT 230V290 9999 BKN011 OVC019 02/00 Q1017

TAF TAF EDGS
Valid from the 01 at 15:00 until the 02 at 00:00 UTC


011400Z 0115/0124 27015G25KT 9999 BKN015
PROB40
TEMPO 0115/0121 26020G30KT 3000 SHSNRA BKN006CB
PROB30
TEMPO 0118/0124 BKN004



MET'MAP, your aeronautical weather chart ! - Copyright ORBIFLY December 2007 - Disclaimer

ORBIFLY MET'MAP TEAM :

Programming & Development : Alexandra Zaïnal
Original concept : Baudouin d'Aumeries
Technical & hardware support : Manuel Goepfert
Assistance : Marc-Olivier Méhu




SOURCES & CREDITS :

   NOAA